createdAt,value
2022-09-01T00:00:09.641Z,11.75
2022-09-01T00:02:59.122Z,11.74
2022-09-01T00:05:28.269Z,11.73
2022-09-01T00:07:57.392Z,11.71
2022-09-01T00:10:26.687Z,11.70
2022-09-01T00:12:57.079Z,11.69
2022-09-01T00:15:30.584Z,11.67
2022-09-01T00:17:59.603Z,11.66
2022-09-01T00:20:29.026Z,11.66
2022-09-01T00:22:58.215Z,11.65
2022-09-01T00:25:27.970Z,11.64
2022-09-01T00:28:00.296Z,11.64
2022-09-01T00:30:30.721Z,11.62
2022-09-01T00:32:59.990Z,11.61
2022-09-01T00:35:29.523Z,11.60
2022-09-01T00:37:58.473Z,11.58
2022-09-01T00:40:31.397Z,11.56
2022-09-01T00:43:01.216Z,11.53
2022-09-01T00:45:32.369Z,11.52
2022-09-01T00:48:01.488Z,11.49
2022-09-01T00:50:30.770Z,11.47
2022-09-01T00:53:00.879Z,11.45
2022-09-01T00:55:32.825Z,11.44
2022-09-01T00:58:03.665Z,11.42
2022-09-01T01:00:41.935Z,11.46
2022-09-01T01:03:12.850Z,11.48
2022-09-01T01:05:54.383Z,11.52
2022-09-01T01:08:31.674Z,11.55
2022-09-01T01:11:01.248Z,11.59
2022-09-01T01:13:32.132Z,11.64
2022-09-01T01:16:03.358Z,11.71
2022-09-01T01:18:33.028Z,11.77
2022-09-01T01:21:24.687Z,11.84
2022-09-01T01:24:03.544Z,11.91
2022-09-01T01:26:34.610Z,11.95
2022-09-01T01:29:04.940Z,12.03
2022-09-01T01:31:35.481Z,12.08
2022-09-01T01:34:09.822Z,12.12
2022-09-01T01:36:41.725Z,12.20
2022-09-01T01:39:19.318Z,12.25
2022-09-01T01:41:50.811Z,12.30
2022-09-01T01:44:27.954Z,12.31
2022-09-01T01:46:59.950Z,12.35
2022-09-01T01:49:31.317Z,12.38
2022-09-01T01:52:01.241Z,12.43
2022-09-01T01:54:33.834Z,12.45
2022-09-01T01:57:05.372Z,12.48
2022-09-01T01:59:34.708Z,12.50
2022-09-01T02:02:09.860Z,12.53
2022-09-01T02:04:40.430Z,12.57
2022-09-01T02:07:14.091Z,12.60
2022-09-01T02:09:48.182Z,12.62
2022-09-01T02:12:19.740Z,12.65
2022-09-01T02:14:50.211Z,12.67
2022-09-01T02:17:21.294Z,12.69
2022-09-01T02:19:50.720Z,12.72
2022-09-01T02:22:21.743Z,12.74
2022-09-01T02:24:52.804Z,12.76
2022-09-01T02:27:26.014Z,12.77
2022-09-01T02:29:58.800Z,12.78
2022-09-01T02:32:28.646Z,12.80
2022-09-01T02:35:01.416Z,12.80
2022-09-01T02:37:30.817Z,12.81
2022-09-01T02:39:59.915Z,12.81
2022-09-01T02:42:30.337Z,12.82
2022-09-01T02:44:59.840Z,12.82
2022-09-01T02:47:33.566Z,12.83
2022-09-01T02:50:03.635Z,12.84
2022-09-01T02:52:38.265Z,12.86
2022-09-01T02:55:09.118Z,12.87
2022-09-01T02:57:39.867Z,12.89
2022-09-01T03:00:20.924Z,12.89
2022-09-01T03:02:52.966Z,12.89
2022-09-01T03:05:25.446Z,12.90
2022-09-01T03:07:58.034Z,12.90
2022-09-01T03:11:23.848Z,12.92
2022-09-01T03:13:54.885Z,12.91
2022-09-01T03:16:24.704Z,12.91
2022-09-01T03:18:54.161Z,12.91
2022-09-01T03:21:23.541Z,12.92
2022-09-01T03:23:54.317Z,12.92
2022-09-01T03:26:24.336Z,12.91
2022-09-01T03:28:55.059Z,12.92
2022-09-01T03:31:27.582Z,12.94
2022-09-01T03:34:03.425Z,12.94
2022-09-01T03:36:36.154Z,12.94
2022-09-01T03:39:05.768Z,12.92
2022-09-01T03:41:37.512Z,12.93
2022-09-01T03:44:12.135Z,12.97
2022-09-01T03:46:42.616Z,13.00
2022-09-01T03:49:15.203Z,13.01
2022-09-01T03:51:45.116Z,13.01
2022-09-01T03:54:14.835Z,13.02
2022-09-01T03:56:43.936Z,13.03
2022-09-01T03:59:19.792Z,13.04
2022-09-01T04:01:50.367Z,13.06
2022-09-01T04:04:19.593Z,13.07
2022-09-01T04:06:49.206Z,13.09
2022-09-01T04:09:18.299Z,13.10
2022-09-01T04:11:48.522Z,13.14
2022-09-01T04:14:19.826Z,13.17
2022-09-01T04:17:08.428Z,13.18
2022-09-01T04:19:39.663Z,13.21
2022-09-01T04:22:17.767Z,13.22
2022-09-01T04:24:47.227Z,13.25
2022-09-01T04:27:21.681Z,13.27
2022-09-01T04:29:55.811Z,13.29
2022-09-01T04:32:28.900Z,13.31
2022-09-01T04:35:01.653Z,13.34
2022-09-01T04:37:31.272Z,13.37
2022-09-01T04:40:04.591Z,13.39
2022-09-01T04:42:34.979Z,13.40
2022-09-01T04:45:11.268Z,13.42
2022-09-01T04:47:45.572Z,13.44
2022-09-01T04:50:19.709Z,13.46
2022-09-01T04:53:12.042Z,13.48
2022-09-01T04:55:46.196Z,13.52
2022-09-01T04:58:20.668Z,13.55
2022-09-01T05:00:53.143Z,13.59
2022-09-01T05:03:24.657Z,13.61
2022-09-01T05:06:03.994Z,13.65
2022-09-01T05:08:35.521Z,13.67
2022-09-01T05:11:17.898Z,13.69
2022-09-01T05:13:51.205Z,13.74
2022-09-01T05:16:25.354Z,13.79
2022-09-01T05:18:58.339Z,13.80
2022-09-01T05:21:34.438Z,13.83
2022-09-01T05:24:05.115Z,13.86
2022-09-01T05:26:35.215Z,13.96
2022-09-01T05:29:10.751Z,14.04
2022-09-01T05:31:43.403Z,14.09
2022-09-01T05:34:13.192Z,14.17
2022-09-01T05:36:48.312Z,14.22
2022-09-01T05:39:17.748Z,14.29
2022-09-01T05:41:48.208Z,14.35
2022-09-01T05:44:22.604Z,14.43
2022-09-01T05:46:55.888Z,14.52
2022-09-01T05:49:28.659Z,14.59
2022-09-01T05:51:59.025Z,14.65
2022-09-01T05:54:30.764Z,14.69
2022-09-01T05:57:17.417Z,14.75
2022-09-01T05:59:54.058Z,14.79
2022-09-01T06:02:28.750Z,14.87
2022-09-01T06:05:00.397Z,14.93
2022-09-01T06:07:35.855Z,14.99
2022-09-01T06:10:06.388Z,15.04
2022-09-01T06:12:36.620Z,15.09
2022-09-01T06:15:16.054Z,15.14
2022-09-01T06:17:50.061Z,15.19
2022-09-01T06:20:20.396Z,15.25
2022-09-01T06:22:49.859Z,15.33
2022-09-01T06:25:19.468Z,15.42
2022-09-01T06:27:52.495Z,15.49
2022-09-01T06:30:24.390Z,15.57
2022-09-01T06:33:02.369Z,15.67
2022-09-01T06:35:34.001Z,15.77
2022-09-01T06:38:04.887Z,15.86
2022-09-01T06:40:43.691Z,15.99
2022-09-01T06:43:17.474Z,16.09
2022-09-01T06:45:54.760Z,16.19
2022-09-01T06:48:30.930Z,16.30
2022-09-01T06:51:15.967Z,16.40
2022-09-01T06:53:51.221Z,16.49
2022-09-01T06:56:20.968Z,16.57
2022-09-01T06:58:53.426Z,16.64
2022-09-01T07:01:24.406Z,16.71
2022-09-01T07:03:57.141Z,16.77
2022-09-01T07:07:54.416Z,16.83
2022-09-01T07:10:21.028Z,16.91
2022-09-01T07:13:09.001Z,16.94
2022-09-01T07:18:35.023Z,16.99
2022-09-01T07:21:36.142Z,17.00
2022-09-01T07:24:11.165Z,17.00
2022-09-01T07:26:47.636Z,17.00
2022-09-01T07:29:22.786Z,17.00
2022-09-01T07:34:47.718Z,16.97
2022-09-01T07:43:34.121Z,16.92
2022-09-01T07:46:38.807Z,16.92
2022-09-01T07:52:03.895Z,16.98
2022-09-01T07:54:37.322Z,17.06
2022-09-01T07:57:06.622Z,17.11
2022-09-01T07:59:37.703Z,17.13
2022-09-01T08:02:17.705Z,17.20
2022-09-01T08:04:48.273Z,17.28
2022-09-01T08:07:18.030Z,17.33
2022-09-01T08:09:48.442Z,17.40
2022-09-01T08:12:18.803Z,17.45
2022-09-01T08:15:12.730Z,17.50
2022-09-01T08:17:51.690Z,17.51
2022-09-01T08:20:21.366Z,17.52
2022-09-01T08:23:15.158Z,17.53
2022-09-01T08:25:45.949Z,17.55
2022-09-01T08:28:26.284Z,17.57
2022-09-01T08:30:56.402Z,17.61
2022-09-01T08:33:27.830Z,17.66
2022-09-01T08:35:57.326Z,17.73
2022-09-01T08:38:28.139Z,17.78
2022-09-01T08:41:03.387Z,17.85
2022-09-01T08:43:49.114Z,17.92
2022-09-01T08:46:26.065Z,18.00
2022-09-01T08:52:15.351Z,18.18
2022-09-01T08:54:47.945Z,18.25
2022-09-01T08:57:23.081Z,18.32
2022-09-01T09:00:23.384Z,18.38
2022-09-01T09:03:07.750Z,18.45
2022-09-01T09:05:52.248Z,18.53
2022-09-01T09:08:35.163Z,18.61
2022-09-01T09:11:08.378Z,18.70
2022-09-01T09:13:53.617Z,18.79
2022-09-01T09:16:28.989Z,18.85
2022-09-01T09:19:04.315Z,18.88
2022-09-01T09:21:37.375Z,18.92
2022-09-01T09:24:20.672Z,18.97
2022-09-01T09:26:51.442Z,19.01
2022-09-01T09:29:22.060Z,19.07
2022-09-01T09:32:04.859Z,19.14
2022-09-01T09:34:36.908Z,19.19
2022-09-01T09:37:24.023Z,19.28
2022-09-01T09:40:15.936Z,19.32
2022-09-01T09:43:07.716Z,19.39
2022-09-01T09:45:42.330Z,19.47
2022-09-01T09:48:29.039Z,19.54
2022-09-01T09:51:16.644Z,19.61
2022-09-01T09:53:45.849Z,19.66
2022-09-01T09:56:20.844Z,19.70
2022-09-01T09:58:51.721Z,19.70
2022-09-01T10:01:32.558Z,19.69
2022-09-01T10:04:04.337Z,19.65
2022-09-01T10:06:37.358Z,19.60
2022-09-01T10:09:09.669Z,19.55
2022-09-01T10:11:42.298Z,19.53
2022-09-01T10:14:35.871Z,19.50
2022-09-01T10:17:13.369Z,19.47
2022-09-01T10:19:52.614Z,19.45
2022-09-01T10:22:23.153Z,19.41
2022-09-01T10:24:52.167Z,19.38
2022-09-01T10:27:23.158Z,19.36
2022-09-01T10:30:13.998Z,19.34
2022-09-01T10:32:54.885Z,19.35
2022-09-01T10:35:28.227Z,19.36
2022-09-01T10:38:01.007Z,19.38
2022-09-01T10:40:41.709Z,19.39
2022-09-01T10:43:38.043Z,19.38
2022-09-01T10:46:42.160Z,19.38
2022-09-01T10:49:50.520Z,19.39
2022-09-01T10:53:11.462Z,19.40
2022-09-01T10:56:02.005Z,19.40
2022-09-01T11:02:34.742Z,19.38
2022-09-01T11:05:19.230Z,19.37
2022-09-01T11:08:15.242Z,19.33
2022-09-01T11:10:53.485Z,19.32
2022-09-01T11:13:46.317Z,19.29
2022-09-01T11:16:52.388Z,19.26
2022-09-01T11:19:39.347Z,19.28
2022-09-01T11:22:22.896Z,19.27
2022-09-01T11:25:38.722Z,19.26
2022-09-01T11:28:47.358Z,19.27
2022-09-01T11:31:33.242Z,19.29
2022-09-01T11:34:13.325Z,19.32
2022-09-01T11:37:00.374Z,19.34
2022-09-01T11:39:44.165Z,19.37
2022-09-01T11:42:19.632Z,19.38
2022-09-01T11:44:54.083Z,19.41
2022-09-01T11:47:27.716Z,19.44
2022-09-01T11:49:59.868Z,19.45
2022-09-01T11:52:31.882Z,19.47
2022-09-01T11:55:01.618Z,19.49
2022-09-01T11:57:33.795Z,19.48
2022-09-01T12:00:05.909Z,19.46
2022-09-01T12:02:47.920Z,19.46
2022-09-01T12:05:33.325Z,19.48
2022-09-01T12:08:05.672Z,19.50
2022-09-01T12:10:38.722Z,19.54
2022-09-01T12:13:10.871Z,19.60
2022-09-01T12:16:00.617Z,19.67
2022-09-01T12:18:38.365Z,19.76
2022-09-01T12:21:09.603Z,19.84
2022-09-01T12:23:43.190Z,19.90
2022-09-01T12:26:15.799Z,19.95
2022-09-01T12:28:45.688Z,19.99
2022-09-01T12:31:17.279Z,20.01
2022-09-01T12:33:49.100Z,20.04
2022-09-01T12:36:25.552Z,20.09
2022-09-01T12:38:56.477Z,20.16
2022-09-01T12:41:35.139Z,20.25
2022-09-01T12:44:31.046Z,20.35
2022-09-01T12:47:02.572Z,20.42
2022-09-01T12:49:47.909Z,20.50
2022-09-01T12:52:26.073Z,20.56
2022-09-01T12:55:47.380Z,20.59
2022-09-01T12:58:06.190Z,20.60
2022-09-01T13:00:37.083Z,20.60
2022-09-01T13:03:14.533Z,20.61
2022-09-01T13:05:47.163Z,20.62
2022-09-01T13:08:19.029Z,20.65
2022-09-01T13:10:51.733Z,20.68
2022-09-01T13:13:24.120Z,20.70
2022-09-01T13:15:55.478Z,20.74
2022-09-01T13:18:26.516Z,20.78
2022-09-01T13:20:59.051Z,20.79
2022-09-01T13:23:28.466Z,20.83
2022-09-01T13:25:59.038Z,20.84
2022-09-01T13:28:28.490Z,20.85
2022-09-01T13:36:45.216Z,20.98
2022-09-01T13:39:16.960Z,21.14
2022-09-01T13:41:48.223Z,21.45
2022-09-01T13:44:18.554Z,21.92
2022-09-01T13:50:05.458Z,23.29
2022-09-01T13:52:27.708Z,23.96
2022-09-01T13:54:56.857Z,24.39
2022-09-01T13:57:27.020Z,24.80
2022-09-01T14:00:01.015Z,25.21
2022-09-01T14:02:29.960Z,25.64
2022-09-01T14:04:59.396Z,26.12
2022-09-01T14:07:30.493Z,26.58
2022-09-01T14:09:59.555Z,27.01
2022-09-01T14:12:30.269Z,27.46
2022-09-01T14:15:17.536Z,27.98
2022-09-01T14:17:48.559Z,28.55
2022-09-01T14:20:20.263Z,29.05
2022-09-01T14:22:52.126Z,29.37
2022-09-01T14:25:22.209Z,29.44
2022-09-01T14:27:53.325Z,29.28
2022-09-01T14:30:29.155Z,29.02
2022-09-01T14:33:01.489Z,28.64
2022-09-01T14:35:34.335Z,28.23
2022-09-01T14:38:07.668Z,27.85
2022-09-01T14:40:38.679Z,27.56
2022-09-01T14:43:10.497Z,27.54
2022-09-01T14:45:39.884Z,27.77
2022-09-01T14:48:09.491Z,28.12
2022-09-01T14:50:42.724Z,28.57
2022-09-01T14:53:13.826Z,29.09
2022-09-01T14:55:44.044Z,29.63
2022-09-01T14:58:13.580Z,30.19
2022-09-01T15:00:42.962Z,30.65
2022-09-01T15:03:12.334Z,31.06
2022-09-01T15:05:41.997Z,31.33
2022-09-01T15:08:17.634Z,31.39
2022-09-01T15:10:47.160Z,31.33
2022-09-01T15:13:16.320Z,31.33
2022-09-01T15:16:00.218Z,31.33
2022-09-01T15:18:29.923Z,31.44
2022-09-01T15:20:59.293Z,31.63
2022-09-01T15:23:29.801Z,31.89
2022-09-01T15:25:59.062Z,32.18
2022-09-01T15:28:28.176Z,32.44
2022-09-01T15:30:57.687Z,32.70
2022-09-01T15:33:26.929Z,32.96
2022-09-01T15:35:55.872Z,33.15
2022-09-01T15:38:30.333Z,33.28
2022-09-01T15:41:01.748Z,33.38
2022-09-01T15:43:31.922Z,33.43
2022-09-01T15:46:02.131Z,33.37
2022-09-01T15:48:31.377Z,33.22
2022-09-01T15:51:28.262Z,33.16
2022-09-01T15:54:00.280Z,33.12
2022-09-01T15:56:32.030Z,33.14
2022-09-01T15:59:03.554Z,33.22
2022-09-01T16:01:34.961Z,33.30
2022-09-01T16:04:05.712Z,33.36
2022-09-01T16:06:35.415Z,33.42
2022-09-01T16:09:04.922Z,33.36
2022-09-01T16:11:36.734Z,33.18
2022-09-01T16:14:06.578Z,32.97
2022-09-01T16:16:46.998Z,32.56
2022-09-01T16:19:39.088Z,31.97
2022-09-01T16:22:17.737Z,31.42
2022-09-01T16:24:49.373Z,30.82
2022-09-01T16:27:24.446Z,30.27
2022-09-01T16:29:57.008Z,29.72
2022-09-01T16:32:27.216Z,29.20
2022-09-01T16:34:56.283Z,28.70
2022-09-01T16:37:40.783Z,28.20
2022-09-01T16:40:31.112Z,27.70
2022-09-01T16:43:11.457Z,27.20
2022-09-01T16:45:50.824Z,26.76
2022-09-01T16:48:26.770Z,26.34
2022-09-01T16:51:03.167Z,25.92
2022-09-01T16:53:59.187Z,25.50
2022-09-01T16:56:33.992Z,25.13
2022-09-01T16:59:21.083Z,24.73
2022-09-01T17:02:01.613Z,24.40
2022-09-01T17:04:39.591Z,24.07
2022-09-01T17:07:15.501Z,23.78
2022-09-01T17:09:47.581Z,23.49
2022-09-01T17:12:27.673Z,23.24
2022-09-01T17:15:02.160Z,23.02
2022-09-01T17:17:41.366Z,22.77
2022-09-01T17:20:12.124Z,22.54
2022-09-01T17:22:52.252Z,22.28
2022-09-01T17:25:29.934Z,22.06
2022-09-01T17:28:07.047Z,21.84
2022-09-01T17:30:45.810Z,21.60
2022-09-01T17:33:24.379Z,21.38
2022-09-01T17:36:11.520Z,21.17
2022-09-01T17:38:54.227Z,20.93
2022-09-01T17:41:34.818Z,20.73
2022-09-01T17:44:19.243Z,20.53
2022-09-01T17:46:58.302Z,20.32
2022-09-01T17:49:35.802Z,20.16
2022-09-01T17:52:15.190Z,20.00
2022-09-01T17:54:52.387Z,19.85
2022-09-01T17:57:29.643Z,19.70
2022-09-01T18:00:03.933Z,19.58
2022-09-01T18:03:07.457Z,19.41
2022-09-01T18:05:41.378Z,19.26
2022-09-01T18:08:30.708Z,19.12
2022-09-01T18:11:03.685Z,18.97
2022-09-01T18:13:52.503Z,18.81
2022-09-01T18:16:26.837Z,18.63
2022-09-01T18:19:04.205Z,18.45
2022-09-01T18:21:38.243Z,18.27
2022-09-01T18:24:15.777Z,18.11
2022-09-01T18:26:48.441Z,17.96
2022-09-01T18:29:18.421Z,17.80
2022-09-01T18:32:19.125Z,17.63
2022-09-01T18:35:04.050Z,17.45
2022-09-01T18:37:50.547Z,17.30
2022-09-01T18:40:28.522Z,17.13
2022-09-01T18:43:09.425Z,16.98
2022-09-01T18:45:49.385Z,16.85
2022-09-01T18:48:37.361Z,16.71
2022-09-01T18:51:18.137Z,16.55
2022-09-01T18:53:52.812Z,16.40
2022-09-01T18:56:34.390Z,16.25
2022-09-01T18:59:36.503Z,16.08
2022-09-01T19:02:20.420Z,15.90
2022-09-01T19:04:54.885Z,15.76
2022-09-01T19:07:36.840Z,15.61
2022-09-01T19:10:18.745Z,15.45
2022-09-01T19:12:58.481Z,15.33
2022-09-01T19:15:33.638Z,15.22
2022-09-01T19:18:13.957Z,15.11
2022-09-01T19:20:51.361Z,14.97
2022-09-01T19:23:36.275Z,14.83
2022-09-01T19:26:08.824Z,14.71
2022-09-01T19:28:43.363Z,14.60
2022-09-01T19:31:23.726Z,14.48
2022-09-01T19:33:57.080Z,14.38
2022-09-01T19:36:34.261Z,14.28
2022-09-01T19:39:06.835Z,14.17
2022-09-01T19:41:41.232Z,14.06
2022-09-01T19:44:22.299Z,13.96
2022-09-01T19:46:55.531Z,13.84
2022-09-01T19:49:34.387Z,13.74
2022-09-01T19:52:10.697Z,13.66
2022-09-01T19:54:52.136Z,13.57
2022-09-01T19:57:28.769Z,13.48
2022-09-01T20:00:05.467Z,13.39
2022-09-01T20:02:39.414Z,13.28
2022-09-01T20:05:18.371Z,13.22
2022-09-01T20:07:54.672Z,13.14
2022-09-01T20:10:40.196Z,13.05
2022-09-01T20:13:27.779Z,12.99
2022-09-01T20:16:06.079Z,12.94
2022-09-01T20:18:40.190Z,12.88
2022-09-01T20:21:14.804Z,12.83
2022-09-01T20:23:56.044Z,12.78
2022-09-01T20:26:33.704Z,12.73
2022-09-01T20:29:12.254Z,12.68
2022-09-01T20:31:46.267Z,12.63
2022-09-01T20:34:22.223Z,12.59
2022-09-01T20:36:54.478Z,12.54
2022-09-01T20:39:50.237Z,12.50
2022-09-01T20:42:34.702Z,12.46
2022-09-01T20:45:10.805Z,12.42
2022-09-01T20:47:39.871Z,12.36
2022-09-01T20:50:14.561Z,12.28
2022-09-01T20:52:56.708Z,12.22
2022-09-01T20:55:31.271Z,12.16
2022-09-01T20:58:08.344Z,12.10
2022-09-01T21:00:45.769Z,12.06
2022-09-01T21:03:22.299Z,12.01
2022-09-01T21:06:15.758Z,11.96
2022-09-01T21:08:50.111Z,11.92
2022-09-01T21:11:29.948Z,11.88
2022-09-01T21:14:13.927Z,11.83
2022-09-01T21:16:52.873Z,11.77
2022-09-01T21:19:29.482Z,11.71
2022-09-01T21:22:05.530Z,11.68
2022-09-01T21:24:35.447Z,11.67
2022-09-01T21:27:09.454Z,11.64
2022-09-01T21:29:53.713Z,11.60
2022-09-01T21:32:23.500Z,11.57
2022-09-01T21:34:54.144Z,11.54
2022-09-01T21:37:24.345Z,11.49
2022-09-01T21:39:54.246Z,11.46
2022-09-01T21:42:25.272Z,11.42
2022-09-01T21:44:57.039Z,11.39
2022-09-01T21:47:27.494Z,11.35
2022-09-01T21:49:56.880Z,11.32
2022-09-01T21:52:26.119Z,11.30
2022-09-01T21:54:55.302Z,11.29
2022-09-01T21:57:24.480Z,11.25
2022-09-01T21:59:55.092Z,11.22
2022-09-01T22:02:28.441Z,11.18
2022-09-01T22:04:57.911Z,11.14
2022-09-01T22:07:26.959Z,11.10
2022-09-01T22:09:57.775Z,11.04
2022-09-01T22:12:27.019Z,11.01
2022-09-01T22:14:57.336Z,10.97
2022-09-01T22:17:27.213Z,10.95
2022-09-01T22:19:56.384Z,10.94
2022-09-01T22:22:25.777Z,10.92
2022-09-01T22:24:54.723Z,10.89
2022-09-01T22:27:23.965Z,10.87
2022-09-01T22:29:53.255Z,10.85
2022-09-01T22:32:26.910Z,10.82
2022-09-01T22:34:59.190Z,10.80
2022-09-01T22:37:28.151Z,10.76
2022-09-01T22:39:57.204Z,10.73
2022-09-01T22:42:26.412Z,10.69
2022-09-01T22:44:55.550Z,10.67
2022-09-01T22:47:25.933Z,10.66
2022-09-01T22:49:56.170Z,10.65
2022-09-01T22:52:25.528Z,10.65
2022-09-01T22:54:54.520Z,10.64
2022-09-01T22:57:23.743Z,10.62
2022-09-01T22:59:52.747Z,10.59
2022-09-01T23:02:21.928Z,10.57
2022-09-01T23:04:52.859Z,10.53
2022-09-01T23:07:21.848Z,10.48
2022-09-01T23:09:50.899Z,10.45
2022-09-01T23:12:20.490Z,10.44
2022-09-01T23:14:49.759Z,10.41
2022-09-01T23:17:18.887Z,10.39
2022-09-01T23:19:48.383Z,10.39
2022-09-01T23:22:19.050Z,10.39
2022-09-01T23:24:47.955Z,10.41
2022-09-01T23:27:17.361Z,10.39
2022-09-01T23:29:46.322Z,10.36
2022-09-01T23:32:15.463Z,10.34
2022-09-01T23:34:44.819Z,10.33
2022-09-01T23:37:13.907Z,10.30
2022-09-01T23:39:44.581Z,10.29
2022-09-01T23:42:13.879Z,10.28
2022-09-01T23:44:42.851Z,10.28
2022-09-01T23:47:12.043Z,10.28
2022-09-01T23:49:41.687Z,10.27
2022-09-01T23:52:11.175Z,10.27
2022-09-01T23:54:40.289Z,10.26
2022-09-01T23:57:11.731Z,10.27
2022-09-01T23:59:41.077Z,10.26
